Time;durP1;ratioP1;P1;durP2;ratioP2;P2;SDS_P1;SDS_P2;PMS_P1;PMS_P2;Temp;Humidity;BMP_temperature;BMP_pressure;BME280_temperature;BME280_humidity;BME280_pressure;Samples;Min_cycle;Max_cycle;Signal;HPM_P1;HPM_P2
2021/10/22 00:01:00;;;;;;;11.45;1.33;;;4.90;99.90;;;;;;4977582;28;20388;-70
2021/10/22 00:03:29;;;;;;;9.65;2.50;;;4.80;99.90;;;;;;4978103;28;20177;-70
2021/10/22 00:05:59;;;;;;;5.22;1.20;;;4.90;99.90;;;;;;4977433;28;20033;-70
2021/10/22 00:08:27;;;;;;;8.18;2.00;;;4.90;99.90;;;;;;4977658;28;20027;-70
2021/10/22 00:10:54;;;;;;;12.27;2.00;;;4.90;99.90;;;;;;4977586;28;20077;-70
2021/10/22 00:13:22;;;;;;;16.92;2.80;;;4.90;99.90;;;;;;4978268;28;20363;-70
2021/10/22 00:15:49;;;;;;;11.70;1.75;;;5.00;99.90;;;;;;4978352;28;20019;-70
2021/10/22 00:18:19;;;;;;;14.00;2.58;;;5.00;99.90;;;;;;4961566;28;20054;-70
2021/10/22 00:20:48;;;;;;;13.27;1.33;;;5.00;99.90;;;;;;4982676;28;20030;-69
2021/10/22 00:23:16;;;;;;;8.10;1.70;;;5.00;99.90;;;;;;4982919;28;20315;-70
2021/10/22 00:25:44;;;;;;;11.32;2.40;;;5.00;99.90;;;;;;4982153;28;20050;-70
2021/10/22 00:28:12;;;;;;;7.40;1.50;;;5.00;99.90;;;;;;4982894;28;20043;-70
2021/10/22 00:30:39;;;;;;;4.93;1.00;;;4.90;99.90;;;;;;4983137;28;20409;-70
2021/10/22 00:33:06;;;;;;;5.60;1.15;;;4.90;99.90;;;;;;4982396;28;20019;-70
2021/10/22 00:35:34;;;;;;;11.38;1.95;;;4.90;99.90;;;;;;4981173;28;20019;-70
2021/10/22 00:38:02;;;;;;;12.32;1.38;;;4.90;99.90;;;;;;4960717;29;20047;-70
2021/10/22 00:40:29;;;;;;;13.45;2.75;;;4.90;99.90;;;;;;4961779;28;20031;-69
2021/10/22 00:42:57;;;;;;;11.07;1.63;;;5.00;99.90;;;;;;4961773;28;20027;-70
2021/10/22 00:45:24;;;;;;;6.70;1.20;;;4.90;99.90;;;;;;4962227;28;20031;-70
2021/10/22 00:47:52;;;;;;;5.68;0.93;;;4.90;99.90;;;;;;4962180;28;20030;-70
2021/10/22 00:50:19;;;;;;;10.52;2.85;;;5.00;99.90;;;;;;4961576;28;20490;-70
2021/10/22 00:52:47;;;;;;;9.30;1.55;;;4.90;99.90;;;;;;4962125;28;20059;-70
2021/10/22 00:55:15;;;;;;;3.60;1.08;;;4.90;99.90;;;;;;4961473;28;20033;-70
2021/10/22 00:57:44;;;;;;;8.00;2.17;;;5.00;99.90;;;;;;4961380;29;20031;-70
2021/10/22 01:00:12;;;;;;;13.57;1.88;;;4.90;99.90;;;;;;4963052;28;20311;-70
2021/10/22 01:02:40;;;;;;;7.80;2.13;;;4.90;99.90;;;;;;4962310;28;20062;-70
2021/10/22 01:05:12;;;;;;;8.95;2.22;;;5.00;99.90;;;;;;4962268;28;20448;-70
2021/10/22 01:07:41;;;;;;;10.95;2.33;;;5.00;99.90;;;;;;4963028;28;20156;-70
2021/10/22 01:10:11;;;;;;;11.35;1.65;;;5.00;99.90;;;;;;4962069;28;20197;-70
2021/10/22 01:12:40;;;;;;;6.22;1.50;;;4.90;99.90;;;;;;4962056;28;20428;-70
2021/10/22 01:15:08;;;;;;;7.15;1.50;;;4.90;99.90;;;;;;4961085;29;20491;-70
2021/10/22 01:17:44;;;;;;;14.30;3.53;;;4.90;99.90;;;;;;4961374;28;20474;-69
2021/10/22 01:20:16;;;;;;;13.15;1.60;;;4.90;99.90;;;;;;4961041;28;20086;-70
2021/10/22 01:22:45;;;;;;;12.30;1.70;;;4.90;99.90;;;;;;4961561;28;20035;-70
2021/10/22 01:25:21;;;;;;;12.82;2.00;;;4.90;99.90;;;;;;4960870;28;20035;-70
2021/10/22 01:27:49;;;;;;;8.38;1.83;;;4.90;99.90;;;;;;4961558;28;20023;-70
2021/10/22 01:30:18;;;;;;;14.50;3.15;;;4.80;99.90;;;;;;4960044;28;20036;-70
2021/10/22 01:32:49;;;;;;;9.85;2.20;;;4.80;99.90;;;;;;4961305;28;20110;-69
2021/10/22 01:35:17;;;;;;;14.55;2.60;;;4.90;99.90;;;;;;4960829;28;20019;-70
2021/10/22 01:37:45;;;;;;;5.72;2.72;;;4.90;99.90;;;;;;4976922;28;20105;-69
2021/10/22 01:40:13;;;;;;;12.68;3.50;;;4.90;99.90;;;;;;4980692;28;20027;-70
2021/10/22 01:42:40;;;;;;;15.82;4.38;;;4.90;99.90;;;;;;4980937;28;20030;-69
2021/10/22 01:45:08;;;;;;;13.35;4.40;;;4.90;99.90;;;;;;4980835;28;20019;-69
2021/10/22 01:47:36;;;;;;;17.13;5.13;;;4.90;99.90;;;;;;4981202;28;20109;-70
2021/10/22 01:50:04;;;;;;;14.10;4.72;;;5.00;99.90;;;;;;4981262;28;20027;-69
2021/10/22 01:52:32;;;;;;;13.43;5.25;;;5.00;99.90;;;;;;4980899;28;20034;-70
2021/10/22 01:55:00;;;;;;;14.75;5.97;;;5.00;99.90;;;;;;4980665;28;20419;-69
2021/10/22 01:57:27;;;;;;;11.75;6.10;;;5.00;99.90;;;;;;4980902;28;20027;-69
2021/10/22 01:59:55;;;;;;;33.67;6.82;;;5.10;99.90;;;;;;4979695;28;20026;-69
2021/10/22 02:02:22;;;;;;;17.50;6.45;;;5.10;99.90;;;;;;4979898;28;20030;-70
2021/10/22 02:04:50;;;;;;;18.38;6.93;;;5.10;99.90;;;;;;4980151;28;20420;-69
2021/10/22 02:07:17;;;;;;;24.15;7.35;;;5.10;99.90;;;;;;4962282;28;20030;-69
2021/10/22 02:09:45;;;;;;;16.27;6.28;;;5.10;99.90;;;;;;4962990;28;20019;-70
2021/10/22 02:12:13;;;;;;;17.08;6.90;;;5.10;99.90;;;;;;4980098;28;20047;-70
2021/10/22 02:14:40;;;;;;;16.33;5.90;;;5.10;99.90;;;;;;4979940;28;20023;-69
2021/10/22 02:17:10;;;;;;;24.15;6.85;;;5.20;99.90;;;;;;4979804;28;20019;-69
2021/10/22 02:19:38;;;;;;;15.18;6.35;;;5.20;99.90;;;;;;4979853;28;20038;-70
2021/10/22 02:22:05;;;;;;;15.10;5.60;;;5.20;99.90;;;;;;4980226;28;20050;-69
2021/10/22 02:24:33;;;;;;;17.85;6.85;;;5.20;99.90;;;;;;4980075;28;20023;-69
2021/10/22 02:27:01;;;;;;;12.13;5.82;;;5.30;99.90;;;;;;4980510;28;20027;-69
2021/10/22 02:29:29;;;;;;;16.80;5.88;;;5.20;99.90;;;;;;4979999;28;20019;-70
2021/10/22 02:32:01;;;;;;;13.00;4.93;;;5.20;99.90;;;;;;4979910;28;20027;-69
2021/10/22 02:34:28;;;;;;;20.42;5.10;;;5.30;99.90;;;;;;4980181;28;20026;-70
2021/10/22 02:36:56;;;;;;;12.75;4.13;;;5.30;99.90;;;;;;4979643;28;20054;-70
2021/10/22 02:39:23;;;;;;;18.60;4.80;;;5.30;99.90;;;;;;4980280;28;20026;-69
2021/10/22 02:41:50;;;;;;;13.77;4.20;;;5.40;99.90;;;;;;4979487;28;20022;-70
2021/10/22 02:44:18;;;;;;;12.88;5.13;;;5.30;99.90;;;;;;4979490;28;20029;-69
2021/10/22 02:46:46;;;;;;;20.15;5.38;;;5.30;99.90;;;;;;4961419;28;20033;-70
2021/10/22 02:49:14;;;;;;;18.15;5.25;;;5.30;99.90;;;;;;4978621;28;20023;-69
2021/10/22 02:51:41;;;;;;;16.30;5.95;;;5.30;99.90;;;;;;4978691;28;20032;-69
2021/10/22 02:54:08;;;;;;;19.20;4.88;;;5.30;99.90;;;;;;4961543;28;20027;-69
2021/10/22 02:56:36;;;;;;;12.60;4.50;;;5.30;99.90;;;;;;4961685;28;20157;-69
2021/10/22 02:59:03;;;;;;;18.85;5.30;;;5.40;99.90;;;;;;4978488;28;20030;-69
2021/10/22 03:01:31;;;;;;;15.82;4.82;;;5.40;99.90;;;;;;4978409;28;20023;-69
2021/10/22 03:03:58;;;;;;;16.60;5.60;;;5.40;99.90;;;;;;4979639;28;20026;-69
2021/10/22 03:06:26;;;;;;;13.88;6.03;;;5.50;99.90;;;;;;4962182;28;20031;-69
2021/10/22 03:08:53;;;;;;;10.05;5.57;;;5.50;99.90;;;;;;4979363;28;20427;-70
2021/10/22 03:11:21;;;;;;;9.15;4.07;;;5.50;99.90;;;;;;4962014;28;20078;-70
2021/10/22 03:13:49;;;;;;;14.52;6.30;;;5.50;99.90;;;;;;4962346;28;20355;-69
2021/10/22 03:16:18;;;;;;;24.35;6.80;;;5.40;99.90;;;;;;4979022;28;20026;-69
2021/10/22 03:18:47;;;;;;;17.08;5.60;;;5.40;99.90;;;;;;4979766;28;20026;-69
2021/10/22 03:21:16;;;;;;;18.08;6.95;;;5.30;99.90;;;;;;4979233;28;20327;-69
2021/10/22 03:23:44;;;;;;;12.07;5.68;;;5.30;99.90;;;;;;4978297;28;20033;-69
2021/10/22 03:26:12;;;;;;;14.02;5.32;;;5.20;99.90;;;;;;4961081;28;20326;-69
2021/10/22 03:28:40;;;;;;;14.57;6.07;;;5.20;99.90;;;;;;4978241;28;20023;-69
2021/10/22 03:31:07;;;;;;;15.20;5.03;;;5.20;99.90;;;;;;4977928;28;20061;-70
2021/10/22 03:33:35;;;;;;;16.23;5.28;;;5.10;99.90;;;;;;4978298;28;20019;-69
2021/10/22 03:36:03;;;;;;;13.82;4.65;;;5.20;99.90;;;;;;4977703;28;20026;-70
2021/10/22 03:38:30;;;;;;;11.68;4.28;;;5.20;99.90;;;;;;4978075;28;20035;-70
2021/10/22 03:40:58;;;;;;;7.85;3.80;;;5.20;99.90;;;;;;4960752;28;20375;-69
2021/10/22 03:43:25;;;;;;;11.82;4.07;;;5.30;99.90;;;;;;4978395;28;20030;-69
2021/10/22 03:45:53;;;;;;;12.23;4.40;;;5.30;99.90;;;;;;4978696;28;20080;-70
2021/10/22 03:48:21;;;;;;;10.30;3.53;;;5.40;99.90;;;;;;4979382;28;20038;-70
2021/10/22 03:50:48;;;;;;;10.23;3.05;;;5.40;99.90;;;;;;4978675;28;20030;-70
2021/10/22 03:53:16;;;;;;;14.73;3.20;;;5.50;99.90;;;;;;4978293;28;20023;-70
2021/10/22 03:55:43;;;;;;;11.40;2.60;;;5.50;99.90;;;;;;4961382;28;20022;-69
2021/10/22 03:58:11;;;;;;;11.43;3.20;;;5.60;99.90;;;;;;4978776;28;20034;-69
2021/10/22 04:00:40;;;;;;;18.77;2.83;;;5.50;99.90;;;;;;4961346;28;20027;-69
2021/10/22 04:03:07;;;;;;;10.15;3.00;;;5.50;99.90;;;;;;4978491;28;20113;-69
2021/10/22 04:05:34;;;;;;;16.65;3.45;;;5.50;99.90;;;;;;4978627;28;20461;-69
2021/10/22 04:08:02;;;;;;;8.30;2.03;;;5.50;99.90;;;;;;4960444;28;20031;-69
2021/10/22 04:10:29;;;;;;;10.63;1.83;;;5.50;99.90;;;;;;4977569;28;20158;-69
2021/10/22 04:12:57;;;;;;;12.30;1.60;;;5.60;99.90;;;;;;4977579;28;20031;-69
2021/10/22 04:15:24;;;;;;;9.13;2.28;;;5.60;99.90;;;;;;4977523;28;20026;-69
2021/10/22 04:17:52;;;;;;;12.07;2.15;;;5.50;99.90;;;;;;4977407;28;20494;-69
2021/10/22 04:20:20;;;;;;;13.30;2.58;;;5.60;99.90;;;;;;4977720;28;20034;-69
2021/10/22 04:22:48;;;;;;;6.18;1.88;;;5.60;99.90;;;;;;4977500;28;20474;-69
2021/10/22 04:25:15;;;;;;;8.13;1.83;;;5.60;99.90;;;;;;4977337;28;20427;-70
2021/10/22 04:27:43;;;;;;;10.98;2.40;;;5.60;99.90;;;;;;4977635;28;20062;-69
2021/10/22 04:30:12;;;;;;;4.22;1.40;;;5.60;99.90;;;;;;4978309;28;20027;-69
2021/10/22 04:32:40;;;;;;;10.63;1.90;;;5.70;99.90;;;;;;4978902;28;20071;-69
2021/10/22 04:35:08;;;;;;;7.15;1.67;;;5.60;99.90;;;;;;4978794;28;20147;-69
2021/10/22 04:40:30;;;;;;;8.40;1.55;;;5.60;99.90;;;;;;4947885;28;20043;-69
2021/10/22 04:43:04;;;;;;;6.57;2.00;;;5.60;99.90;;;;;;4978381;28;20375;-69
2021/10/22 04:45:36;;;;;;;8.52;1.90;;;5.60;99.90;;;;;;4961162;28;20375;-69
2021/10/22 04:48:06;;;;;;;9.05;1.95;;;5.60;99.90;;;;;;4977566;28;20054;-69
2021/10/22 04:50:40;;;;;;;9.45;1.90;;;5.60;99.90;;;;;;4977724;28;20023;-69
2021/10/22 04:53:08;;;;;;;6.65;1.75;;;5.60;99.90;;;;;;4977405;28;20027;-69
2021/10/22 04:55:38;;;;;;;8.00;1.35;;;5.60;99.90;;;;;;4977172;28;20450;-69
2021/10/22 04:58:06;;;;;;;12.27;1.90;;;5.60;99.90;;;;;;4977070;28;20081;-69
2021/10/22 05:00:35;;;;;;;5.15;1.27;;;5.50;99.90;;;;;;4977052;28;20031;-69
2021/10/22 05:03:03;;;;;;;8.80;1.55;;;5.50;99.90;;;;;;4977546;28;20382;-69
2021/10/22 05:05:30;;;;;;;13.70;3.50;;;5.50;99.90;;;;;;4978005;28;20031;-69
2021/10/22 05:07:59;;;;;;;7.03;1.75;;;5.50;99.90;;;;;;4980562;28;20323;-69
2021/10/22 05:10:28;;;;;;;11.40;1.30;;;5.60;99.90;;;;;;4981406;28;20463;-70
2021/10/22 05:12:56;;;;;;;6.38;1.58;;;5.60;99.90;;;;;;4982064;28;20034;-69
2021/10/22 05:15:24;;;;;;;8.45;1.40;;;5.60;99.90;;;;;;4981894;28;20474;-69
2021/10/22 05:17:52;;;;;;;8.40;1.60;;;5.60;99.90;;;;;;4981295;28;20092;-69
2021/10/22 05:20:19;;;;;;;10.95;2.75;;;5.70;99.90;;;;;;4981845;28;20037;-70
2021/10/22 05:22:47;;;;;;;6.75;1.35;;;5.70;99.90;;;;;;4981977;28;20019;-69
2021/10/22 05:25:17;;;;;;;13.05;2.28;;;5.70;99.90;;;;;;4981671;28;20077;-69
2021/10/22 05:27:45;;;;;;;8.65;2.10;;;5.70;99.90;;;;;;4981032;28;20022;-69
2021/10/22 05:30:14;;;;;;;9.38;2.83;;;5.60;99.90;;;;;;4981326;28;20307;-69
2021/10/22 05:32:45;;;;;;;14.35;3.13;;;5.60;99.90;;;;;;4980131;28;20025;-69
2021/10/22 05:35:13;;;;;;;7.97;1.23;;;5.60;99.90;;;;;;4980020;28;20022;-69
2021/10/22 05:37:41;;;;;;;6.85;1.13;;;5.60;99.90;;;;;;4980042;28;20105;-69
2021/10/22 05:40:09;;;;;;;4.70;1.23;;;5.60;99.90;;;;;;4980751;28;20055;-69
2021/10/22 05:42:36;;;;;;;6.57;1.60;;;5.60;99.90;;;;;;4980026;28;20026;-69
2021/10/22 05:45:05;;;;;;;6.10;1.05;;;5.60;99.90;;;;;;4980450;28;20312;-69
2021/10/22 05:47:37;;;;;;;11.68;2.55;;;5.60;99.90;;;;;;4962758;28;20333;-69
2021/10/22 05:50:08;;;;;;;7.68;1.63;;;5.60;99.90;;;;;;4980418;28;20023;-69
2021/10/22 05:52:36;;;;;;;12.18;1.45;;;5.60;99.90;;;;;;4979963;28;20130;-70
2021/10/22 05:55:05;;;;;;;6.63;1.30;;;5.60;99.90;;;;;;4963526;28;20034;-75
2021/10/22 05:57:33;;;;;;;6.53;1.65;;;5.60;99.90;;;;;;4980773;28;20062;-73
2021/10/22 06:00:01;;;;;;;7.35;1.10;;;5.60;99.90;;;;;;4963390;28;20086;-70
2021/10/22 06:02:30;;;;;;;7.68;1.63;;;5.70;99.90;;;;;;4980637;28;20023;-69
2021/10/22 06:04:57;;;;;;;5.28;1.48;;;5.70;99.90;;;;;;4980545;28;20023;-69
2021/10/22 06:07:33;;;;;;;8.05;1.00;;;5.70;99.90;;;;;;4980610;28;20034;-71
2021/10/22 06:10:01;;;;;;;6.25;1.60;;;5.70;99.90;;;;;;4980932;28;20106;-71
2021/10/22 06:12:28;;;;;;;6.75;1.00;;;5.80;99.90;;;;;;4980415;28;20030;-71
2021/10/22 06:14:57;;;;;;;6.50;1.63;;;5.80;99.90;;;;;;4979934;28;20110;-71
2021/10/22 06:17:25;;;;;;;7.53;2.05;;;5.80;99.90;;;;;;4979245;28;20108;-71
2021/10/22 06:19:56;;;;;;;8.40;1.17;;;5.90;99.90;;;;;;4962119;28;20185;-74
2021/10/22 06:22:38;;;;;;;5.97;1.40;;;6.00;99.90;;;;;;4979279;28;20077;-72
2021/10/22 06:25:07;;;;;;;4.97;1.98;;;6.00;99.90;;;;;;4979409;28;20030;-72
2021/10/22 06:27:35;;;;;;;17.23;2.58;;;6.10;99.90;;;;;;4978304;28;20031;-70
2021/10/22 06:30:02;;;;;;;14.23;1.38;;;6.20;99.90;;;;;;4979132;28;20027;-70
2021/10/22 06:32:30;;;;;;;11.73;1.92;;;6.20;99.90;;;;;;4979766;28;20106;-72
2021/10/22 06:34:59;;;;;;;5.07;1.02;;;6.20;99.90;;;;;;4979664;28;20024;-71
2021/10/22 06:37:26;;;;;;;4.57;1.10;;;6.20;99.90;;;;;;4979899;28;20459;-71
2021/10/22 06:39:54;;;;;;;7.20;1.75;;;6.30;99.90;;;;;;4980119;28;20105;-72
2021/10/22 06:42:21;;;;;;;6.70;0.90;;;6.40;99.90;;;;;;4980105;28;20023;-71
2021/10/22 06:44:49;;;;;;;10.00;1.60;;;6.50;99.90;;;;;;4979816;28;20033;-72
2021/10/22 06:47:16;;;;;;;11.57;2.25;;;6.50;99.90;;;;;;4979605;28;20048;-71
2021/10/22 06:49:44;;;;;;;7.00;1.33;;;6.50;99.90;;;;;;4979680;28;20046;-71
2021/10/22 06:52:11;;;;;;;10.93;2.40;;;6.60;99.90;;;;;;4980100;28;20022;-71
2021/10/22 06:54:38;;;;;;;7.20;0.90;;;6.70;99.90;;;;;;4962375;28;20023;-70
2021/10/22 06:57:06;;;;;;;7.53;1.80;;;6.70;99.90;;;;;;4978827;28;20023;-70
2021/10/22 06:59:33;;;;;;;9.02;1.27;;;6.70;99.90;;;;;;4979138;28;20019;-70
2021/10/22 07:02:01;;;;;;;5.95;1.25;;;6.70;99.90;;;;;;4978706;28;20027;-71
2021/10/22 07:04:28;;;;;;;9.38;2.08;;;6.70;99.90;;;;;;4978543;28;20057;-71
2021/10/22 07:09:43;;;;;;;11.13;1.40;;;6.70;99.90;;;;;;4978715;28;20334;-71
2021/10/22 07:12:12;;;;;;;4.40;1.00;;;6.80;99.90;;;;;;4978389;28;20065;-70
2021/10/22 07:14:48;;;;;;;7.68;2.00;;;6.80;99.90;;;;;;4961441;28;20466;-70
2021/10/22 07:17:17;;;;;;;7.20;1.33;;;6.80;99.90;;;;;;4961144;28;20035;-70
2021/10/22 07:19:44;;;;;;;6.05;1.52;;;6.80;99.90;;;;;;4962026;28;20031;-70
2021/10/22 07:22:16;;;;;;;4.00;1.17;;;6.90;99.90;;;;;;4979199;28;20081;-70
2021/10/22 07:24:44;;;;;;;9.10;1.77;;;6.90;99.90;;;;;;4979068;28;20538;-70
2021/10/22 07:27:11;;;;;;;3.88;1.20;;;6.90;99.90;;;;;;4979668;28;20034;-72
2021/10/22 07:29:40;;;;;;;6.82;1.98;;;6.90;99.90;;;;;;4978346;28;20423;-70
2021/10/22 07:32:07;;;;;;;5.10;0.93;;;7.00;99.90;;;;;;4978979;28;20027;-69
2021/10/22 07:34:34;;;;;;;6.50;1.17;;;7.10;99.90;;;;;;4978904;28;20107;-68
2021/10/22 07:37:02;;;;;;;11.57;1.73;;;7.10;99.90;;;;;;4958551;29;20134;-70
2021/10/22 07:39:30;;;;;;;8.27;1.63;;;7.10;99.90;;;;;;4957797;29;20028;-70
2021/10/22 07:41:58;;;;;;;7.03;1.23;;;7.20;99.90;;;;;;4958638;28;20023;-70
2021/10/22 07:44:25;;;;;;;10.98;1.80;;;7.20;99.90;;;;;;4957492;29;20038;-69
2021/10/22 07:46:54;;;;;;;12.80;1.60;;;7.30;99.90;;;;;;4958576;28;20030;-69
2021/10/22 07:49:24;;;;;;;7.18;0.93;;;7.30;99.90;;;;;;4958452;28;20054;-69
2021/10/22 07:51:51;;;;;;;9.45;2.10;;;7.30;99.90;;;;;;4959087;29;20098;-70
2021/10/22 07:54:18;;;;;;;4.47;0.80;;;7.30;99.90;;;;;;4957460;29;20027;-69
2021/10/22 07:56:46;;;;;;;9.45;1.65;;;7.40;99.90;;;;;;4957581;29;20138;-69
2021/10/22 07:59:14;;;;;;;8.18;1.45;;;7.40;99.90;;;;;;4957277;29;20038;-69
2021/10/22 08:01:43;;;;;;;4.55;1.05;;;7.50;99.90;;;;;;4959379;28;20090;-70
2021/10/22 08:04:12;;;;;;;8.25;1.73;;;7.60;99.90;;;;;;4959266;28;20038;-70
2021/10/22 08:06:39;;;;;;;7.57;1.67;;;7.70;99.90;;;;;;4958241;29;20031;-69
2021/10/22 08:09:07;;;;;;;10.52;1.38;;;7.80;99.90;;;;;;4959505;28;20030;-69
2021/10/22 08:11:35;;;;;;;9.73;1.40;;;7.80;99.90;;;;;;4959775;28;20308;-69
2021/10/22 08:14:03;;;;;;;6.18;1.33;;;7.80;99.90;;;;;;4959711;28;20159;-70
2021/10/22 08:16:31;;;;;;;8.52;1.90;;;7.70;99.90;;;;;;4959612;28;20030;-69
2021/10/22 08:19:02;;;;;;;8.43;1.52;;;7.70;99.90;;;;;;4959263;28;20420;-69
2021/10/22 08:24:08;;;;;;;8.13;1.10;;;7.90;99.90;;;;;;4958193;28;20034;-70
2021/10/22 08:26:36;;;;;;;10.27;3.53;;;8.10;99.90;;;;;;4958192;28;20078;-70
2021/10/22 08:29:04;;;;;;;9.48;1.73;;;8.10;99.90;;;;;;4957252;29;20091;-69
2021/10/22 08:31:31;;;;;;;4.88;1.23;;;8.20;99.90;;;;;;4958011;28;20020;-69
2021/10/22 08:33:59;;;;;;;7.63;1.27;;;8.20;99.90;;;;;;4957759;29;20372;-69
2021/10/22 08:36:26;;;;;;;4.40;0.77;;;8.20;99.90;;;;;;4962857;28;20463;-69
2021/10/22 08:38:54;;;;;;;9.70;1.38;;;8.30;99.90;;;;;;4977802;28;20058;-69
2021/10/22 08:41:25;;;;;;;4.93;1.10;;;8.30;99.90;;;;;;4981573;28;20026;-69
2021/10/22 08:43:54;;;;;;;4.68;1.52;;;8.40;99.90;;;;;;4981967;28;20391;-69
2021/10/22 08:46:22;;;;;;;9.20;1.85;;;8.50;99.90;;;;;;4981756;28;20026;-68
2021/10/22 08:48:50;;;;;;;7.88;1.27;;;8.50;99.90;;;;;;4964862;28;20030;-69
2021/10/22 08:51:19;;;;;;;9.35;1.95;;;8.50;99.90;;;;;;4982327;28;20022;-68
2021/10/22 08:53:49;;;;;;;6.05;1.13;;;8.40;99.90;;;;;;4981706;28;20403;-69
2021/10/22 08:56:19;;;;;;;19.65;2.65;;;8.50;99.90;;;;;;4982146;28;20019;-69
2021/10/22 08:58:46;;;;;;;7.53;2.40;;;8.50;99.90;;;;;;4981822;28;20019;-69
2021/10/22 09:01:15;;;;;;;11.20;3.10;;;8.50;99.90;;;;;;4982061;28;20019;-68
2021/10/22 09:03:42;;;;;;;8.25;1.45;;;8.50;99.90;;;;;;4981241;28;20099;-69
2021/10/22 09:06:15;;;;;;;11.35;1.55;;;8.40;99.90;;;;;;4981091;28;20023;-69
2021/10/22 09:08:47;;;;;;;5.03;1.38;;;8.40;99.90;;;;;;4981037;28;20027;-68
2021/10/22 09:11:34;;;;;;;5.95;1.65;;;8.30;99.90;;;;;;4980588;28;20155;-69
2021/10/22 09:14:04;;;;;;;9.45;1.58;;;8.30;99.90;;;;;;4981008;28;20355;-69
2021/10/22 09:16:31;;;;;;;2.70;0.73;;;8.30;99.90;;;;;;4980400;28;20022;-69
2021/10/22 09:18:59;;;;;;;3.13;1.02;;;8.40;99.90;;;;;;4980842;28;20022;-69
2021/10/22 09:21:28;;;;;;;8.50;1.42;;;8.50;99.90;;;;;;4980636;28;20027;-69
2021/10/22 09:24:21;;;;;;;4.18;0.77;;;8.60;99.90;;;;;;4980418;28;20074;-69
2021/10/22 09:26:54;;;;;;;16.65;2.75;;;8.70;99.90;;;;;;4980971;28;20027;-69
2021/10/22 09:29:26;;;;;;;10.63;1.75;;;8.90;99.90;;;;;;4980993;28;20154;-69
2021/10/22 09:31:58;;;;;;;5.35;1.35;;;8.90;99.90;;;;;;4980926;28;20081;-75
2021/10/22 09:34:37;;;;;;;9.43;2.03;;;9.00;99.90;;;;;;4981026;28;20023;-69
2021/10/22 09:37:11;;;;;;;9.35;1.33;;;9.00;99.90;;;;;;4980709;28;20047;-68
2021/10/22 09:39:40;;;;;;;10.95;1.38;;;9.00;99.90;;;;;;4981109;28;20023;-69
2021/10/22 09:42:17;;;;;;;9.52;2.30;;;9.00;99.90;;;;;;4981789;28;20297;-69
2021/10/22 09:44:47;;;;;;;9.93;1.60;;;9.00;99.90;;;;;;4981241;28;20077;-69
2021/10/22 09:47:19;;;;;;;9.15;1.63;;;9.10;99.90;;;;;;4979754;28;20027;-69
2021/10/22 09:49:53;;;;;;;4.95;1.30;;;9.10;99.90;;;;;;4979852;28;20023;-69
2021/10/22 09:52:25;;;;;;;6.72;1.60;;;9.20;99.90;;;;;;4979211;28;20026;-69
2021/10/22 09:55:17;;;;;;;4.70;1.42;;;9.20;99.90;;;;;;4980264;28;20023;-69
2021/10/22 09:58:07;;;;;;;4.82;1.42;;;9.30;99.90;;;;;;4980289;28;20363;-69
2021/10/22 10:00:36;;;;;;;7.00;1.88;;;9.30;99.90;;;;;;4979484;28;20308;-69
2021/10/22 10:03:08;;;;;;;12.68;1.60;;;9.40;99.90;;;;;;4979673;28;20030;-69
2021/10/22 10:05:35;;;;;;;12.25;2.08;;;9.30;99.90;;;;;;4980082;28;20400;-69
2021/10/22 10:08:03;;;;;;;10.35;1.65;;;9.40;99.90;;;;;;4980208;28;20030;-69
2021/10/22 10:10:30;;;;;;;19.20;2.28;;;9.50;99.90;;;;;;4980684;28;20416;-69
2021/10/22 10:12:59;;;;;;;4.13;1.73;;;9.50;99.90;;;;;;4980996;28;20109;-69
2021/10/22 10:15:26;;;;;;;8.10;2.10;;;9.60;99.90;;;;;;4963899;28;20114;-71
2021/10/22 10:17:55;;;;;;;10.60;1.48;;;9.70;99.90;;;;;;4980791;28;20018;-69
2021/10/22 10:20:26;;;;;;;6.18;1.50;;;9.90;99.90;;;;;;4980706;28;20023;-68
2021/10/22 10:22:55;;;;;;;8.77;1.50;;;10.00;99.90;;;;;;4980316;28;20037;-69
2021/10/22 10:25:25;;;;;;;6.88;1.40;;;10.10;99.90;;;;;;4980544;28;20027;-68
2021/10/22 10:27:56;;;;;;;6.53;1.50;;;10.20;99.90;;;;;;4979748;28;20031;-69
2021/10/22 10:30:35;;;;;;;6.05;1.52;;;10.20;99.90;;;;;;4979374;28;20019;-69
2021/10/22 10:33:06;;;;;;;3.45;1.40;;;10.20;99.90;;;;;;4979215;28;20101;-69
2021/10/22 10:35:43;;;;;;;8.32;1.55;;;10.20;99.90;;;;;;4978986;28;20018;-68
2021/10/22 10:38:13;;;;;;;10.30;1.90;;;10.20;99.90;;;;;;4958489;29;20066;-68
2021/10/22 10:40:41;;;;;;;8.93;1.88;;;10.30;99.90;;;;;;4960187;28;20067;-68
2021/10/22 10:43:27;;;;;;;11.73;1.83;;;10.40;99.90;;;;;;4959586;28;20023;-69
2021/10/22 10:45:54;;;;;;;4.63;1.10;;;10.50;99.90;;;;;;4959434;28;20027;-69
2021/10/22 10:48:22;;;;;;;9.73;1.48;;;10.50;99.90;;;;;;4958330;29;20139;-68
2021/10/22 10:51:03;;;;;;;8.88;2.05;;;10.50;99.90;;;;;;4960379;28;20030;-69
2021/10/22 10:53:39;;;;;;;9.32;1.67;;;10.50;99.90;;;;;;4960572;28;20035;-69
2021/10/22 10:56:27;;;;;;;15.38;2.03;;;10.50;99.90;;;;;;4960571;28;20315;-69
2021/10/22 10:58:55;;;;;;;9.13;1.75;;;10.50;99.90;;;;;;4960714;28;20074;-68
2021/10/22 11:01:25;;;;;;;4.82;1.80;;;10.50;99.90;;;;;;4960098;28;20015;-69
2021/10/22 11:03:54;;;;;;;8.45;1.27;;;10.50;99.90;;;;;;4959255;28;20019;-69
2021/10/22 11:06:47;;;;;;;9.43;2.25;;;10.40;99.90;;;;;;4960478;28;20367;-70
2021/10/22 11:09:17;;;;;;;10.00;1.33;;;10.40;99.90;;;;;;4959947;28;20101;-69
2021/10/22 11:12:00;;;;;;;8.60;1.70;;;10.40;99.90;;;;;;4959723;28;20074;-69
2021/10/22 11:14:40;;;;;;;9.43;1.25;;;10.40;99.90;;;;;;4959069;29;20035;-69
2021/10/22 11:17:10;;;;;;;7.13;1.50;;;10.30;99.90;;;;;;4959072;28;20356;-69
2021/10/22 11:19:41;;;;;;;10.77;1.88;;;10.20;99.90;;;;;;4960033;28;20285;-69
2021/10/22 11:22:23;;;;;;;4.63;1.33;;;10.10;99.90;;;;;;4957839;29;20027;-69
2021/10/22 11:24:51;;;;;;;4.82;1.52;;;10.00;99.90;;;;;;4958777;28;20181;-70
2021/10/22 11:27:25;;;;;;;11.88;1.65;;;9.90;99.90;;;;;;4959467;28;20058;-69
2021/10/22 11:29:56;;;;;;;4.68;1.30;;;9.90;99.90;;;;;;4958724;29;20110;-69
2021/10/22 11:32:29;;;;;;;7.72;1.17;;;9.90;99.90;;;;;;4957761;28;20019;-69
2021/10/22 11:34:59;;;;;;;12.50;1.75;;;10.00;99.90;;;;;;4959934;28;20487;-69
2021/10/22 11:37:40;;;;;;;7.47;1.75;;;10.00;99.90;;;;;;4971461;28;20445;-69
2021/10/22 11:40:14;;;;;;;5.93;2.60;;;10.00;99.90;;;;;;4978779;28;20073;-69
2021/10/22 11:42:42;;;;;;;9.98;1.80;;;10.10;99.90;;;;;;4978851;28;20019;-69
2021/10/22 11:45:19;;;;;;;6.20;1.35;;;10.10;99.90;;;;;;4978922;28;20023;-69
2021/10/22 11:47:51;;;;;;;5.03;1.20;;;10.00;99.90;;;;;;4978543;28;20034;-70
2021/10/22 11:50:24;;;;;;;7.22;1.52;;;9.90;99.90;;;;;;4979133;28;20102;-69
2021/10/22 11:53:10;;;;;;;7.55;1.60;;;9.90;99.90;;;;;;4978933;28;20035;-68
2021/10/22 11:55:39;;;;;;;;;;;9.90;99.90;;;;;;4978411;28;20493;-69
2021/10/22 11:58:08;;;;;;;7.78;1.25;;;9.90;99.90;;;;;;4977946;28;19906;-69
2021/10/22 12:00:37;;;;;;;6.20;1.70;;;10.00;99.90;;;;;;4960363;28;20030;-68
2021/10/22 12:03:06;;;;;;;8.23;2.15;;;10.10;99.90;;;;;;4960439;28;20035;-68
2021/10/22 12:05:33;;;;;;;6.20;1.67;;;10.20;99.90;;;;;;4977625;28;20051;-69
2021/10/22 12:08:01;;;;;;;7.03;1.88;;;10.20;99.90;;;;;;4977821;28;20034;-69
2021/10/22 12:10:29;;;;;;;4.70;1.27;;;10.30;99.90;;;;;;4977972;28;20023;-69
2021/10/22 12:12:57;;;;;;;8.98;1.65;;;10.20;99.90;;;;;;4977703;28;20081;-69
2021/10/22 12:15:33;;;;;;;9.98;1.90;;;10.20;99.90;;;;;;4980402;28;20296;-69
2021/10/22 12:18:04;;;;;;;4.50;1.33;;;10.30;99.90;;;;;;4983074;28;20078;-69
2021/10/22 12:20:34;;;;;;;4.40;1.40;;;10.30;99.90;;;;;;4982506;28;20355;-68
2021/10/22 12:23:04;;;;;;;8.25;1.70;;;10.30;99.90;;;;;;4983080;28;20022;-69
2021/10/22 12:25:32;;;;;;;11.80;2.50;;;10.20;99.90;;;;;;4982381;28;20338;-69
2021/10/22 12:28:14;;;;;;;10.48;3.15;;;10.20;99.90;;;;;;4982562;28;20086;-69
2021/10/22 12:30:46;;;;;;;9.23;1.63;;;10.30;99.90;;;;;;4982145;28;20026;-69
2021/10/22 12:33:16;;;;;;;6.22;2.17;;;10.30;99.90;;;;;;4982285;28;20023;-69
2021/10/22 12:35:54;;;;;;;8.15;1.38;;;10.30;99.90;;;;;;4981643;28;20042;-68
2021/10/22 12:38:32;;;;;;;4.75;1.20;;;10.30;99.90;;;;;;4981144;28;20035;-68
2021/10/22 12:41:03;;;;;;;6.70;1.50;;;10.20;99.90;;;;;;4981031;28;20034;-69
2021/10/22 12:43:35;;;;;;;10.60;1.55;;;10.20;99.90;;;;;;4981043;28;20118;-69
2021/10/22 12:46:06;;;;;;;4.28;0.98;;;10.10;99.90;;;;;;4980885;28;20034;-69
2021/10/22 12:48:41;;;;;;;8.98;1.02;;;9.90;99.90;;;;;;4981392;28;20027;-69
2021/10/22 12:51:23;;;;;;;4.25;1.40;;;9.90;99.90;;;;;;4981072;28;20027;-69
2021/10/22 12:53:59;;;;;;;5.63;1.73;;;9.80;99.90;;;;;;4981001;28;20019;-69
2021/10/22 12:56:28;;;;;;;10.30;1.58;;;9.90;99.90;;;;;;4981162;28;20030;-68
2021/10/22 12:59:06;;;;;;;12.20;1.60;;;9.90;99.90;;;;;;4964397;28;20388;-68
2021/10/22 13:01:41;;;;;;;4.63;1.13;;;9.80;99.90;;;;;;4981744;28;20418;-69
2021/10/22 13:04:12;;;;;;;6.03;1.57;;;9.70;99.90;;;;;;4982307;28;20022;-68
2021/10/22 13:09:51;;;;;;;5.25;1.23;;;9.60;99.90;;;;;;4981628;28;20330;-68
2021/10/22 13:22:54;;;;;;;3.33;1.20;;;9.00;99.90;;;;;;4980481;28;20035;-69
2021/10/22 13:25:23;;;;;;;6.55;2.00;;;8.90;99.90;;;;;;4980779;28;20034;-69